D/T METAR WX W/DIR W/SPE G/SPE TEMP DEWP
22/01/20 08:50 EGLL 220850Z VRB01KT 1800 BR SCT002 BKN003 OVC006 04/04 Q1038 TEMPO 1200 BKN002 BR N (0°) 1.2mph 4°C 4°C
22/01/20 08:20 EGLL 220820Z VRB01KT 1600 BR BKN002 OVC007 05/05 Q1038 TEMPO 1200 BR N (0°) 1.2mph 5°C 5°C
22/01/20 07:50 EGLL 220750Z 16001KT 1500 BR BKN002 OVC014 05/04 Q1038 BR SSE (160°) 1.2mph 5°C 4°C
22/01/20 06:50 EGLL 220650Z AUTO VRB02KT 1600 BR BKN001 OVC006 04/04 Q1038 TEMPO 0800 FG BR N (0°) 2.3mph 4°C 4°C
22/01/20 06:20 EGLL 220620Z AUTO VRB03KT 0550 R09L/1300 R09R/1200 FG OVC001 04/04 Q1038 FG N (0°) 3.5mph 4°C 4°C
22/01/20 05:50 EGLL 220550Z AUTO VRB03KT 0900 R09L/P1500 R09R/P1500 FG OVC002 04/04 Q1037 FG N (0°) 3.5mph 4°C 4°C
22/01/20 05:20 EGLL 220520Z AUTO VRB02KT 3000 BR OVC004 04/04 Q1037 BR N (0°) 2.3mph 4°C 4°C
22/01/20 04:50 EGLL 220450Z AUTO VRB02KT 5000 BR OVC006 04/03 Q1038 BR N (0°) 2.3mph 4°C 3°C
22/01/20 04:20 EGLL 220420Z AUTO VRB02KT 7000 OVC008 03/03 Q1038 N (0°) 2.3mph 3°C 3°C
22/01/20 03:50 EGLL 220350Z AUTO VRB03KT 8000 OVC009 03/02 Q1038 BECMG 3000 BR BKN004 N (0°) 3.5mph 3°C 2°C
22/01/20 03:20 EGLL 220320Z AUTO 32002KT 6000 OVC011 03/02 Q1038 BECMG 3000 BR BKN005 NW (320°) 2.3mph 3°C 2°C
22/01/20 02:50 EGLL 220250Z AUTO 28001KT 7000 OVC012 03/02 Q1038 TEMPO 3000 BR BKN009 W (280°) 1.2mph 3°C 2°C
22/01/20 02:20 EGLL 220220Z AUTO VRB01KT 6000 OVC012 02/02 Q1039 TEMPO 3000 BR BKN009 N (0°) 1.2mph 2°C 2°C
22/01/20 01:50 EGLL 220150Z AUTO 28002KT 6000 OVC013 02/02 Q1039 TEMPO 3000 BR BKN009 W (280°) 2.3mph 2°C 2°C
22/01/20 01:20 EGLL 220120Z AUTO VRB01KT 4800 BR OVC014 01/01 Q1039 TEMPO 2000 BKN009 BR N (0°) 1.2mph 1°C 1°C
22/01/20 00:50 EGLL 220050Z 27002KT 4700 BR BKN018 01/01 Q1039 BR W (270°) 2.3mph 1°C 1°C
22/01/20 00:20 EGLL 220020Z AUTO 30002KT 5000 BR SCT019 01/01 Q1040 TEMPO 4000 BKN014 BR WNW (300°) 2.3mph 1°C 1°C
21/01/20 23:20 EGLL 212320Z AUTO 29003KT 7000 OVC021 03/02 Q1040 WNW (290°) 3.5mph 3°C 2°C
21/01/20 22:50 EGLL 212250Z AUTO 32004KT 8000 OVC021 03/02 Q1040 NOSIG NW (320°) 4.6mph 3°C 2°C
21/01/20 22:20 EGLL 212220Z AUTO 31004KT 7000 OVC022 02/02 Q1040 NW (310°) 4.6mph 2°C 2°C
21/01/20 21:50 EGLL 212150Z AUTO 29004KT 8000 SCT022 03/02 Q1039 NOSIG WNW (290°) 4.6mph 3°C 2°C
21/01/20 21:20 EGLL 212120Z AUTO 25006KT 220V290 8000 NCD 03/02 Q1039 NOSIG WSW (250°) 6.9mph 3°C 2°C
21/01/20 20:20 EGLL 212020Z AUTO 30003KT 9000 BKN023 03/02 Q1040 NOSIG WNW (300°) 3.5mph 3°C 2°C
21/01/20 19:50 EGLL 211950Z AUTO 31004KT 9999 NCD 04/03 Q1040 NOSIG NW (310°) 4.6mph 4°C 3°C
21/01/20 19:20 EGLL 211920Z AUTO 30004KT 9999 NCD 03/02 Q1040 WNW (300°) 4.6mph 3°C 2°C
21/01/20 18:50 EGLL 211850Z AUTO 28004KT 9999 NCD 04/02 Q1040 NOSIG W (280°) 4.6mph 4°C 2°C
21/01/20 18:20 EGLL 211820Z AUTO 28004KT 9999 NCD 04/02 Q1040 W (280°) 4.6mph 4°C 2°C
21/01/20 17:20 EGLL 211720Z AUTO 30003KT 9999 NCD 05/03 Q1040 NOSIG WNW (300°) 3.5mph 5°C 3°C
21/01/20 16:50 EGLL 211650Z AUTO 28005KT 9999 NCD 04/02 Q1040 NOSIG W (280°) 5.8mph 4°C 2°C
21/01/20 16:20 EGLL 211620Z AUTO 28004KT 9999 NCD 05/03 Q1040 NOSIG W (280°) 4.6mph 5°C 3°C
21/01/20 15:50 EGLL 211550Z AUTO 27006KT 9999 NCD 06/03 Q1040 NOSIG W (270°) 6.9mph 6°C 3°C
21/01/20 15:20 EGLL 211520Z AUTO 28005KT 9999 NCD 07/03 Q1040 W (280°) 5.8mph 7°C 3°C
21/01/20 14:50 EGLL 211450Z AUTO 26004KT 200V310 9999 NCD 07/03 Q1041 W (260°) 4.6mph 7°C 3°C
21/01/20 14:20 EGLL 211420Z AUTO 29004KT 270V330 9999 NCD 08/04 Q1041 WNW (290°) 4.6mph 8°C 4°C
21/01/20 13:50 EGLL 211350Z AUTO 30005KT 9999 NCD 07/04 Q1041 NOSIG WNW (300°) 5.8mph 7°C 4°C
21/01/20 13:20 EGLL 211320Z AUTO 28005KT 210V320 9999 NCD 07/04 Q1041 W (280°) 5.8mph 7°C 4°C
21/01/20 12:50 EGLL 211250Z AUTO 22004KT 9999 NCD 06/04 Q1042 SW (220°) 4.6mph 6°C 4°C
21/01/20 11:50 EGLL 211150Z AUTO 19004KT 160V220 9000 NCD 05/03 Q1042 NOSIG S (190°) 4.6mph 5°C 3°C
21/01/20 11:20 EGLL 211120Z AUTO 19004KT 170V310 7000 NCD 04/03 Q1042 S (190°) 4.6mph 4°C 3°C
21/01/20 10:50 EGLL 211050Z AUTO 19005KT 140V270 8000 NCD 03/02 Q1043 NOSIG S (190°) 5.8mph 3°C 2°C
21/01/20 10:20 EGLL 211020Z AUTO 25004KT 200V290 6000 NCD 03/02 Q1043 WSW (250°) 4.6mph 3°C 2°C
21/01/20 09:20 EGLL 210920Z AUTO VRB03KT 6000 BKN017 01/01 Q1043 N (0°) 3.5mph 1°C 1°C
21/01/20 08:50 EGLL 210850Z AUTO 30004KT 6000 BKN018 00/M00 Q1043 TEMPO 4000 BR WNW (300°) 4.6mph 0°C 0°C
21/01/20 08:20 EGLL 210820Z 31004KT 5000 BR FEW020 M01/M01 Q1043 BR NW (310°) 4.6mph -1°C -1°C
21/01/20 07:50 EGLL 210750Z VRB03KT 5000 BR NSC M01/M01 Q1043 BR N (0°) 3.5mph -1°C -1°C
21/01/20 07:20 EGLL 210720Z VRB03KT 4000 BR NSC M01/M01 Q1042 BR N (0°) 3.5mph -1°C -1°C
21/01/20 06:20 EGLL 210620Z VRB02KT 4500 2000SW BR VCFG NSC M02/M02 Q1043 VCFG BR N (0°) 2.3mph -2°C -2°C
21/01/20 05:50 EGLL 210550Z 27004KT 4000 1500SW BCFG FEW000 M01/M01 Q1043 TEMPO 0400 FZFG BKN000 BCFG W (270°) 4.6mph -1°C -1°C